sensor_id;sensor_type;location;lat;lon;timestamp;temperature;humidity
14079;DHT22;7115;50.150;8.568;2022-09-09T00:04:41;18.50;99.90
14079;DHT22;7115;50.150;8.568;2022-09-09T00:07:21;18.50;99.90
14079;DHT22;7115;50.150;8.568;2022-09-09T00:10:11;18.50;99.90
14079;DHT22;7115;50.150;8.568;2022-09-09T00:15:20;18.50;99.90
14079;DHT22;7115;50.150;8.568;2022-09-09T00:18:02;18.50;99.90
14079;DHT22;7115;50.150;8.568;2022-09-09T00:20:40;18.50;99.90
14079;DHT22;7115;50.150;8.568;2022-09-09T00:23:18;18.50;99.90
14079;DHT22;7115;50.150;8.568;2022-09-09T00:31:27;18.40;99.90
14079;DHT22;7115;50.150;8.568;2022-09-09T00:34:00;18.40;99.90
14079;DHT22;7115;50.150;8.568;2022-09-09T00:36:31;18.30;99.90
14079;DHT22;7115;50.150;8.568;2022-09-09T00:39:02;18.30;99.90
14079;DHT22;7115;50.150;8.568;2022-09-09T00:42:21;18.40;99.90
14079;DHT22;7115;50.150;8.568;2022-09-09T00:44:33;18.30;99.90
14079;DHT22;7115;50.150;8.568;2022-09-09T00:58:05;18.20;99.90
14079;DHT22;7115;50.150;8.568;2022-09-09T01:00:47;18.20;99.90
14079;DHT22;7115;50.150;8.568;2022-09-09T01:06:19;18.20;99.90
14079;DHT22;7115;50.150;8.568;2022-09-09T01:11:22;18.10;99.90
14079;DHT22;7115;50.150;8.568;2022-09-09T01:13:56;18.10;99.90
14079;DHT22;7115;50.150;8.568;2022-09-09T01:16:29;18.00;99.90
14079;DHT22;7115;50.150;8.568;2022-09-09T01:18:58;18.00;99.90
14079;DHT22;7115;50.150;8.568;2022-09-09T01:21:45;18.00;99.90
14079;DHT22;7115;50.150;8.568;2022-09-09T01:27:02;18.00;99.90
14079;DHT22;7115;50.150;8.568;2022-09-09T01:29:30;17.90;99.90
14079;DHT22;7115;50.150;8.568;2022-09-09T01:34:28;17.90;99.90
14079;DHT22;7115;50.150;8.568;2022-09-09T01:39:25;17.80;99.90
14079;DHT22;7115;50.150;8.568;2022-09-09T01:41:53;17.80;99.90
14079;DHT22;7115;50.150;8.568;2022-09-09T01:44:22;17.80;99.90
14079;DHT22;7115;50.150;8.568;2022-09-09T01:46:49;17.70;99.90
14079;DHT22;7115;50.150;8.568;2022-09-09T01:49:17;17.70;99.90
14079;DHT22;7115;50.150;8.568;2022-09-09T01:51:48;17.60;99.90
14079;DHT22;7115;50.150;8.568;2022-09-09T01:54:15;17.60;99.90
14079;DHT22;7115;50.150;8.568;2022-09-09T02:05:40;17.40;99.90
14079;DHT22;7115;50.150;8.568;2022-09-09T02:08:18;17.40;99.90
14079;DHT22;7115;50.150;8.568;2022-09-09T02:10:55;17.40;99.90
14079;DHT22;7115;50.150;8.568;2022-09-09T02:13:22;17.40;99.90
14079;DHT22;7115;50.150;8.568;2022-09-09T02:18:25;17.40;99.90
14079;DHT22;7115;50.150;8.568;2022-09-09T02:20:53;17.40;99.90
14079;DHT22;7115;50.150;8.568;2022-09-09T02:23:20;17.40;99.90
14079;DHT22;7115;50.150;8.568;2022-09-09T02:25:48;17.30;99.90
14079;DHT22;7115;50.150;8.568;2022-09-09T02:28:20;17.30;99.90
14079;DHT22;7115;50.150;8.568;2022-09-09T02:30:50;17.40;99.90
14079;DHT22;7115;50.150;8.568;2022-09-09T02:33:27;17.40;99.90
14079;DHT22;7115;50.150;8.568;2022-09-09T02:35:56;17.40;99.90
14079;DHT22;7115;50.150;8.568;2022-09-09T02:38:32;17.40;99.90
14079;DHT22;7115;50.150;8.568;2022-09-09T02:41:01;17.40;99.90
14079;DHT22;7115;50.150;8.568;2022-09-09T02:43:32;17.50;99.90
14079;DHT22;7115;50.150;8.568;2022-09-09T02:49:10;17.40;99.90
14079;DHT22;7115;50.150;8.568;2022-09-09T02:54:27;17.50;99.90
14079;DHT22;7115;50.150;8.568;2022-09-09T02:57:16;17.50;99.90
14079;DHT22;7115;50.150;8.568;2022-09-09T02:59:44;17.50;99.90
14079;DHT22;7115;50.150;8.568;2022-09-09T03:02:11;17.50;99.90
14079;DHT22;7115;50.150;8.568;2022-09-09T03:04:40;17.50;99.90
14079;DHT22;7115;50.150;8.568;2022-09-09T03:07:08;17.50;99.90
14079;DHT22;7115;50.150;8.568;2022-09-09T03:09:36;17.50;99.90
14079;DHT22;7115;50.150;8.568;2022-09-09T03:12:02;17.50;99.90
14079;DHT22;7115;50.150;8.568;2022-09-09T03:14:30;17.60;99.90
14079;DHT22;7115;50.150;8.568;2022-09-09T03:16:57;17.50;99.90
14079;DHT22;7115;50.150;8.568;2022-09-09T03:19:27;17.60;99.90
14079;DHT22;7115;50.150;8.568;2022-09-09T03:21:54;17.60;99.90
14079;DHT22;7115;50.150;8.568;2022-09-09T03:24:20;17.60;99.90
14079;DHT22;7115;50.150;8.568;2022-09-09T03:26:49;17.60;99.90
14079;DHT22;7115;50.150;8.568;2022-09-09T03:29:17;17.50;99.90
14079;DHT22;7115;50.150;8.568;2022-09-09T03:31:44;17.60;99.90
14079;DHT22;7115;50.150;8.568;2022-09-09T03:34:11;17.60;99.90
14079;DHT22;7115;50.150;8.568;2022-09-09T03:36:38;17.60;99.90
14079;DHT22;7115;50.150;8.568;2022-09-09T03:39:04;17.60;99.90
14079;DHT22;7115;50.150;8.568;2022-09-09T03:41:31;17.50;99.90
14079;DHT22;7115;50.150;8.568;2022-09-09T03:43:58;17.50;99.90
14079;DHT22;7115;50.150;8.568;2022-09-09T03:46:25;17.50;99.90
14079;DHT22;7115;50.150;8.568;2022-09-09T03:48:52;17.40;99.90
14079;DHT22;7115;50.150;8.568;2022-09-09T03:51:19;17.40;99.90
14079;DHT22;7115;50.150;8.568;2022-09-09T03:53:46;17.40;99.90
14079;DHT22;7115;50.150;8.568;2022-09-09T03:56:13;17.40;99.90
14079;DHT22;7115;50.150;8.568;2022-09-09T03:58:40;17.50;99.90
14079;DHT22;7115;50.150;8.568;2022-09-09T04:01:13;17.50;99.90
14079;DHT22;7115;50.150;8.568;2022-09-09T04:03:41;17.50;99.90
14079;DHT22;7115;50.150;8.568;2022-09-09T04:06:12;17.50;99.90
14079;DHT22;7115;50.150;8.568;2022-09-09T04:08:41;17.50;99.90
14079;DHT22;7115;50.150;8.568;2022-09-09T04:11:08;17.60;99.90
14079;DHT22;7115;50.150;8.568;2022-09-09T04:13:37;17.60;99.90
14079;DHT22;7115;50.150;8.568;2022-09-09T04:16:05;17.50;99.90
14079;DHT22;7115;50.150;8.568;2022-09-09T04:18:32;17.50;99.90
14079;DHT22;7115;50.150;8.568;2022-09-09T04:21:01;17.60;99.90
14079;DHT22;7115;50.150;8.568;2022-09-09T04:23:28;17.60;99.90
14079;DHT22;7115;50.150;8.568;2022-09-09T04:26:01;17.60;99.90
14079;DHT22;7115;50.150;8.568;2022-09-09T04:28:30;17.60;99.90
14079;DHT22;7115;50.150;8.568;2022-09-09T04:31:03;17.60;99.90
14079;DHT22;7115;50.150;8.568;2022-09-09T04:33:29;17.60;99.90
14079;DHT22;7115;50.150;8.568;2022-09-09T04:36:02;17.60;99.90
14079;DHT22;7115;50.150;8.568;2022-09-09T04:38:29;17.50;99.90
14079;DHT22;7115;50.150;8.568;2022-09-09T04:40:56;17.60;99.90
14079;DHT22;7115;50.150;8.568;2022-09-09T04:43:23;17.60;99.90
14079;DHT22;7115;50.150;8.568;2022-09-09T04:45:52;17.50;99.90
14079;DHT22;7115;50.150;8.568;2022-09-09T04:48:20;17.60;99.90
14079;DHT22;7115;50.150;8.568;2022-09-09T04:53:26;17.60;99.90
14079;DHT22;7115;50.150;8.568;2022-09-09T04:56:02;17.60;99.90
14079;DHT22;7115;50.150;8.568;2022-09-09T04:58:29;17.60;99.90
14079;DHT22;7115;50.150;8.568;2022-09-09T05:01:06;17.60;99.90
14079;DHT22;7115;50.150;8.568;2022-09-09T05:03:33;17.50;99.90
14079;DHT22;7115;50.150;8.568;2022-09-09T05:06:19;17.50;99.90
14079;DHT22;7115;50.150;8.568;2022-09-09T05:08:47;17.50;99.90
14079;DHT22;7115;50.150;8.568;2022-09-09T05:11:26;17.50;99.90
14079;DHT22;7115;50.150;8.568;2022-09-09T05:13:53;17.50;99.90
14079;DHT22;7115;50.150;8.568;2022-09-09T05:16:21;17.50;99.90
14079;DHT22;7115;50.150;8.568;2022-09-09T05:18:49;17.50;99.90
14079;DHT22;7115;50.150;8.568;2022-09-09T05:21:19;17.40;99.90
14079;DHT22;7115;50.150;8.568;2022-09-09T05:23:46;17.50;99.90
14079;DHT22;7115;50.150;8.568;2022-09-09T05:26:15;17.50;99.90
14079;DHT22;7115;50.150;8.568;2022-09-09T05:28:44;17.50;99.90
14079;DHT22;7115;50.150;8.568;2022-09-09T05:31:12;17.50;99.90
14079;DHT22;7115;50.150;8.568;2022-09-09T05:33:41;17.40;99.90
14079;DHT22;7115;50.150;8.568;2022-09-09T05:36:11;17.40;99.90
14079;DHT22;7115;50.150;8.568;2022-09-09T05:38:40;17.40;99.90
14079;DHT22;7115;50.150;8.568;2022-09-09T05:41:08;17.40;99.90
14079;DHT22;7115;50.150;8.568;2022-09-09T05:43:35;17.50;99.90
14079;DHT22;7115;50.150;8.568;2022-09-09T05:48:32;17.60;99.90
14079;DHT22;7115;50.150;8.568;2022-09-09T05:51:00;17.60;99.90
14079;DHT22;7115;50.150;8.568;2022-09-09T05:53:27;17.60;99.90
14079;DHT22;7115;50.150;8.568;2022-09-09T05:56:09;17.50;99.90
14079;DHT22;7115;50.150;8.568;2022-09-09T05:58:38;17.60;99.90
14079;DHT22;7115;50.150;8.568;2022-09-09T06:01:14;17.60;99.90
14079;DHT22;7115;50.150;8.568;2022-09-09T06:03:42;17.70;99.90
14079;DHT22;7115;50.150;8.568;2022-09-09T06:06:18;17.70;99.90
14079;DHT22;7115;50.150;8.568;2022-09-09T06:08:48;17.80;99.90
14079;DHT22;7115;50.150;8.568;2022-09-09T06:11:20;17.80;99.90
14079;DHT22;7115;50.150;8.568;2022-09-09T06:13:47;17.80;99.90
14079;DHT22;7115;50.150;8.568;2022-09-09T06:16:17;17.80;99.90
14079;DHT22;7115;50.150;8.568;2022-09-09T06:18:45;17.80;99.90
14079;DHT22;7115;50.150;8.568;2022-09-09T06:21:16;17.70;99.90
14079;DHT22;7115;50.150;8.568;2022-09-09T06:23:44;17.70;99.90
14079;DHT22;7115;50.150;8.568;2022-09-09T06:26:13;17.70;99.90
14079;DHT22;7115;50.150;8.568;2022-09-09T06:28:40;17.80;99.90
14079;DHT22;7115;50.150;8.568;2022-09-09T06:31:11;17.90;99.90
14079;DHT22;7115;50.150;8.568;2022-09-09T06:33:40;18.00;99.90
14079;DHT22;7115;50.150;8.568;2022-09-09T06:36:13;18.00;99.90
14079;DHT22;7115;50.150;8.568;2022-09-09T06:38:41;18.20;99.90
14079;DHT22;7115;50.150;8.568;2022-09-09T06:41:10;18.10;99.90
14079;DHT22;7115;50.150;8.568;2022-09-09T06:43:37;18.20;99.90
14079;DHT22;7115;50.150;8.568;2022-09-09T06:46:16;18.10;99.90
14079;DHT22;7115;50.150;8.568;2022-09-09T06:48:44;18.10;99.90
14079;DHT22;7115;50.150;8.568;2022-09-09T06:53:39;18.10;99.90
14079;DHT22;7115;50.150;8.568;2022-09-09T06:58:44;18.10;99.90
14079;DHT22;7115;50.150;8.568;2022-09-09T07:01:14;18.10;99.90
14079;DHT22;7115;50.150;8.568;2022-09-09T07:03:42;18.00;99.90
14079;DHT22;7115;50.150;8.568;2022-09-09T07:06:32;18.00;99.90
14079;DHT22;7115;50.150;8.568;2022-09-09T07:09:02;17.90;99.90
14079;DHT22;7115;50.150;8.568;2022-09-09T07:11:32;17.90;99.90
14079;DHT22;7115;50.150;8.568;2022-09-09T07:14:00;17.90;99.90
14079;DHT22;7115;50.150;8.568;2022-09-09T07:16:27;17.90;99.90
14079;DHT22;7115;50.150;8.568;2022-09-09T07:18:55;17.90;99.90
14079;DHT22;7115;50.150;8.568;2022-09-09T07:21:27;17.90;99.90
14079;DHT22;7115;50.150;8.568;2022-09-09T07:23:55;18.00;99.90
14079;DHT22;7115;50.150;8.568;2022-09-09T07:26:24;18.00;99.90
14079;DHT22;7115;50.150;8.568;2022-09-09T07:28:51;18.00;99.90
14079;DHT22;7115;50.150;8.568;2022-09-09T07:31:24;18.00;99.90
14079;DHT22;7115;50.150;8.568;2022-09-09T07:33:51;18.00;99.90
14079;DHT22;7115;50.150;8.568;2022-09-09T07:36:23;18.10;99.90
14079;DHT22;7115;50.150;8.568;2022-09-09T07:38:55;18.10;99.90
14079;DHT22;7115;50.150;8.568;2022-09-09T07:41:39;18.20;99.90
14079;DHT22;7115;50.150;8.568;2022-09-09T07:44:11;18.20;99.90
14079;DHT22;7115;50.150;8.568;2022-09-09T07:46:39;18.20;99.90
14079;DHT22;7115;50.150;8.568;2022-09-09T07:49:07;18.30;99.90
14079;DHT22;7115;50.150;8.568;2022-09-09T07:51:39;18.40;99.90
14079;DHT22;7115;50.150;8.568;2022-09-09T07:54:10;18.40;99.90
14079;DHT22;7115;50.150;8.568;2022-09-09T07:56:38;18.40;99.90
14079;DHT22;7115;50.150;8.568;2022-09-09T07:59:06;18.40;99.90
14079;DHT22;7115;50.150;8.568;2022-09-09T08:01:36;18.40;99.90
14079;DHT22;7115;50.150;8.568;2022-09-09T08:04:11;18.30;99.90
14079;DHT22;7115;50.150;8.568;2022-09-09T08:06:50;18.40;99.90
14079;DHT22;7115;50.150;8.568;2022-09-09T08:09:19;18.40;99.90
14079;DHT22;7115;50.150;8.568;2022-09-09T08:11:47;18.40;99.90
14079;DHT22;7115;50.150;8.568;2022-09-09T08:14:14;18.40;99.90
14079;DHT22;7115;50.150;8.568;2022-09-09T08:16:43;18.40;99.90
14079;DHT22;7115;50.150;8.568;2022-09-09T08:19:11;18.40;99.90
14079;DHT22;7115;50.150;8.568;2022-09-09T08:21:39;18.50;99.90
14079;DHT22;7115;50.150;8.568;2022-09-09T08:24:07;18.50;99.90
14079;DHT22;7115;50.150;8.568;2022-09-09T08:26:38;18.60;99.90
14079;DHT22;7115;50.150;8.568;2022-09-09T08:29:06;18.70;99.90
14079;DHT22;7115;50.150;8.568;2022-09-09T08:31:38;18.80;99.90
14079;DHT22;7115;50.150;8.568;2022-09-09T08:34:06;18.80;99.90
14079;DHT22;7115;50.150;8.568;2022-09-09T08:36:36;18.90;99.90
14079;DHT22;7115;50.150;8.568;2022-09-09T08:39:05;19.00;99.90
14079;DHT22;7115;50.150;8.568;2022-09-09T08:55:47;18.90;99.90
14079;DHT22;7115;50.150;8.568;2022-09-09T09:11:39;19.10;99.90
14079;DHT22;7115;50.150;8.568;2022-09-09T09:14:20;19.10;99.90
14079;DHT22;7115;50.150;8.568;2022-09-09T09:16:56;19.10;99.90
14079;DHT22;7115;50.150;8.568;2022-09-09T09:19:25;19.00;99.90
14079;DHT22;7115;50.150;8.568;2022-09-09T09:24:30;19.10;99.90
14079;DHT22;7115;50.150;8.568;2022-09-09T09:27:01;19.10;99.90
14079;DHT22;7115;50.150;8.568;2022-09-09T09:29:33;19.10;99.90
14079;DHT22;7115;50.150;8.568;2022-09-09T09:32:22;19.10;99.90
14079;DHT22;7115;50.150;8.568;2022-09-09T09:34:56;19.20;99.90
14079;DHT22;7115;50.150;8.568;2022-09-09T09:37:29;19.30;99.90
14079;DHT22;7115;50.150;8.568;2022-09-09T09:40:11;19.40;99.90
14079;DHT22;7115;50.150;8.568;2022-09-09T09:42:55;19.50;99.90
14079;DHT22;7115;50.150;8.568;2022-09-09T09:45:43;19.60;99.90
14079;DHT22;7115;50.150;8.568;2022-09-09T09:48:27;19.80;99.90
14079;DHT22;7115;50.150;8.568;2022-09-09T09:51:00;19.70;99.90
14079;DHT22;7115;50.150;8.568;2022-09-09T09:53:33;19.60;99.90
14079;DHT22;7115;50.150;8.568;2022-09-09T09:58:53;19.40;99.90
14079;DHT22;7115;50.150;8.568;2022-09-09T10:01:22;19.40;99.90
14079;DHT22;7115;50.150;8.568;2022-09-09T10:03:52;19.40;99.90
14079;DHT22;7115;50.150;8.568;2022-09-09T10:06:36;19.50;99.90
14079;DHT22;7115;50.150;8.568;2022-09-09T10:09:24;19.60;99.90
14079;DHT22;7115;50.150;8.568;2022-09-09T10:35:41;19.60;99.90
14079;DHT22;7115;50.150;8.568;2022-09-09T10:46:17;19.40;99.90
14079;DHT22;7115;50.150;8.568;2022-09-09T10:48:59;19.50;99.90
14079;DHT22;7115;50.150;8.568;2022-09-09T10:52:03;19.60;99.90
14079;DHT22;7115;50.150;8.568;2022-09-09T10:57:03;19.60;99.90
14079;DHT22;7115;50.150;8.568;2022-09-09T10:59:35;19.60;99.90
14079;DHT22;7115;50.150;8.568;2022-09-09T11:04:44;20.20;99.90
14079;DHT22;7115;50.150;8.568;2022-09-09T11:07:26;20.90;99.90
14079;DHT22;7115;50.150;8.568;2022-09-09T11:10:00;21.70;99.90
14079;DHT22;7115;50.150;8.568;2022-09-09T11:12:30;22.50;99.90
14079;DHT22;7115;50.150;8.568;2022-09-09T11:15:18;23.30;99.90
14079;DHT22;7115;50.150;8.568;2022-09-09T11:17:53;24.10;99.90
14079;DHT22;7115;50.150;8.568;2022-09-09T11:20:23;24.90;99.90
14079;DHT22;7115;50.150;8.568;2022-09-09T11:23:01;25.40;99.90
14079;DHT22;7115;50.150;8.568;2022-09-09T11:25:35;25.80;99.80
14079;DHT22;7115;50.150;8.568;2022-09-09T11:40:15;26.80;93.90
14079;DHT22;7115;50.150;8.568;2022-09-09T11:42:42;26.90;93.60
14079;DHT22;7115;50.150;8.568;2022-09-09T11:45:30;26.90;92.60
14079;DHT22;7115;50.150;8.568;2022-09-09T11:47:58;27.00;91.50
14079;DHT22;7115;50.150;8.568;2022-09-09T11:53:04;27.10;90.50
14079;DHT22;7115;50.150;8.568;2022-09-09T11:55:33;26.50;89.70
14079;DHT22;7115;50.150;8.568;2022-09-09T12:00:43;25.20;90.30
14079;DHT22;7115;50.150;8.568;2022-09-09T12:06:19;24.00;90.80
14079;DHT22;7115;50.150;8.568;2022-09-09T12:08:54;23.60;91.20
14079;DHT22;7115;50.150;8.568;2022-09-09T12:11:28;23.20;91.40
14079;DHT22;7115;50.150;8.568;2022-09-09T12:13:59;23.00;91.70
14079;DHT22;7115;50.150;8.568;2022-09-09T12:16:36;22.70;91.90
14079;DHT22;7115;50.150;8.568;2022-09-09T12:24:33;22.20;92.80
14079;DHT22;7115;50.150;8.568;2022-09-09T12:27:11;22.10;93.10
14079;DHT22;7115;50.150;8.568;2022-09-09T12:29:46;22.10;93.20
14079;DHT22;7115;50.150;8.568;2022-09-09T12:32:20;22.00;93.30
14079;DHT22;7115;50.150;8.568;2022-09-09T12:34:53;21.90;93.40
14079;DHT22;7115;50.150;8.568;2022-09-09T12:37:36;21.80;93.50
14079;DHT22;7115;50.150;8.568;2022-09-09T12:40:14;21.70;93.60
14079;DHT22;7115;50.150;8.568;2022-09-09T12:42:45;21.60;93.80
14079;DHT22;7115;50.150;8.568;2022-09-09T12:45:17;21.60;94.00
14079;DHT22;7115;50.150;8.568;2022-09-09T12:48:00;21.50;94.20
14079;DHT22;7115;50.150;8.568;2022-09-09T12:50:31;21.20;94.90
14079;DHT22;7115;50.150;8.568;2022-09-09T12:53:08;20.80;95.60
14079;DHT22;7115;50.150;8.568;2022-09-09T12:55:38;20.40;96.30
14079;DHT22;7115;50.150;8.568;2022-09-09T12:58:06;20.00;96.80
14079;DHT22;7115;50.150;8.568;2022-09-09T13:00:34;19.80;97.50
14079;DHT22;7115;50.150;8.568;2022-09-09T13:03:13;19.60;98.10
14079;DHT22;7115;50.150;8.568;2022-09-09T13:05:41;19.50;98.80
14079;DHT22;7115;50.150;8.568;2022-09-09T13:08:12;19.40;99.40
14079;DHT22;7115;50.150;8.568;2022-09-09T13:10:43;19.50;99.90
14079;DHT22;7115;50.150;8.568;2022-09-09T13:13:29;19.70;99.90
14079;DHT22;7115;50.150;8.568;2022-09-09T13:16:00;20.00;99.90
14079;DHT22;7115;50.150;8.568;2022-09-09T13:18:34;20.30;99.90
14079;DHT22;7115;50.150;8.568;2022-09-09T13:21:02;20.50;99.90
14079;DHT22;7115;50.150;8.568;2022-09-09T13:23:32;20.80;99.90
14079;DHT22;7115;50.150;8.568;2022-09-09T13:26:04;21.00;99.90
14079;DHT22;7115;50.150;8.568;2022-09-09T13:28:33;21.20;99.90
14079;DHT22;7115;50.150;8.568;2022-09-09T13:31:02;21.20;99.60
14079;DHT22;7115;50.150;8.568;2022-09-09T13:33:35;21.30;99.30
14079;DHT22;7115;50.150;8.568;2022-09-09T13:36:08;21.40;99.10
14079;DHT22;7115;50.150;8.568;2022-09-09T13:38:38;21.50;98.90
14079;DHT22;7115;50.150;8.568;2022-09-09T13:41:07;21.60;98.80
14079;DHT22;7115;50.150;8.568;2022-09-09T13:43:47;21.80;98.60
14079;DHT22;7115;50.150;8.568;2022-09-09T13:46:34;22.00;98.10
14079;DHT22;7115;50.150;8.568;2022-09-09T13:51:36;22.10;97.70
14079;DHT22;7115;50.150;8.568;2022-09-09T13:54:05;22.20;97.50
14079;DHT22;7115;50.150;8.568;2022-09-09T13:56:33;22.20;97.20
14079;DHT22;7115;50.150;8.568;2022-09-09T13:59:02;22.20;97.10
14079;DHT22;7115;50.150;8.568;2022-09-09T14:01:29;22.20;96.90
14079;DHT22;7115;50.150;8.568;2022-09-09T14:03:56;22.10;96.70
14079;DHT22;7115;50.150;8.568;2022-09-09T14:06:23;22.10;96.60
14079;DHT22;7115;50.150;8.568;2022-09-09T14:08:50;21.90;96.60
14079;DHT22;7115;50.150;8.568;2022-09-09T14:11:18;21.90;96.60
14079;DHT22;7115;50.150;8.568;2022-09-09T14:13:45;21.80;96.60
14079;DHT22;7115;50.150;8.568;2022-09-09T14:16:13;21.60;96.50
14079;DHT22;7115;50.150;8.568;2022-09-09T14:18:40;21.50;96.60
14079;DHT22;7115;50.150;8.568;2022-09-09T14:21:07;21.40;96.60
14079;DHT22;7115;50.150;8.568;2022-09-09T14:23:35;21.30;96.60
14079;DHT22;7115;50.150;8.568;2022-09-09T14:26:02;21.10;96.70
14079;DHT22;7115;50.150;8.568;2022-09-09T14:28:28;21.00;96.70
14079;DHT22;7115;50.150;8.568;2022-09-09T14:31:16;20.90;96.70
14079;DHT22;7115;50.150;8.568;2022-09-09T14:33:44;20.80;96.90
14079;DHT22;7115;50.150;8.568;2022-09-09T14:36:11;20.80;96.90
14079;DHT22;7115;50.150;8.568;2022-09-09T14:38:38;20.70;97.00
14079;DHT22;7115;50.150;8.568;2022-09-09T14:41:07;20.70;97.10
14079;DHT22;7115;50.150;8.568;2022-09-09T14:43:34;20.70;97.30
14079;DHT22;7115;50.150;8.568;2022-09-09T14:46:07;20.70;97.40
14079;DHT22;7115;50.150;8.568;2022-09-09T14:48:35;20.70;97.60
14079;DHT22;7115;50.150;8.568;2022-09-09T14:51:13;20.60;97.70
14079;DHT22;7115;50.150;8.568;2022-09-09T14:53:42;20.60;98.10
14079;DHT22;7115;50.150;8.568;2022-09-09T14:56:12;20.50;98.40
14079;DHT22;7115;50.150;8.568;2022-09-09T14:58:39;20.60;98.70
14079;DHT22;7115;50.150;8.568;2022-09-09T15:01:08;20.60;98.90
14079;DHT22;7115;50.150;8.568;2022-09-09T15:03:37;20.70;99.10
14079;DHT22;7115;50.150;8.568;2022-09-09T15:06:06;20.70;99.10
14079;DHT22;7115;50.150;8.568;2022-09-09T15:08:40;20.80;99.10
14079;DHT22;7115;50.150;8.568;2022-09-09T15:11:09;20.90;99.20
14079;DHT22;7115;50.150;8.568;2022-09-09T15:13:38;21.00;99.20
14079;DHT22;7115;50.150;8.568;2022-09-09T15:16:14;21.10;99.20
14079;DHT22;7115;50.150;8.568;2022-09-09T15:18:42;21.20;99.00
14079;DHT22;7115;50.150;8.568;2022-09-09T15:21:10;21.20;98.90
14079;DHT22;7115;50.150;8.568;2022-09-09T15:23:38;21.20;98.80
14079;DHT22;7115;50.150;8.568;2022-09-09T15:26:05;21.40;98.80
14079;DHT22;7115;50.150;8.568;2022-09-09T15:28:34;21.50;98.60
14079;DHT22;7115;50.150;8.568;2022-09-09T15:31:24;21.60;98.50
14079;DHT22;7115;50.150;8.568;2022-09-09T15:36:21;21.60;98.30
14079;DHT22;7115;50.150;8.568;2022-09-09T15:38:51;21.60;98.30
14079;DHT22;7115;50.150;8.568;2022-09-09T15:41:20;21.60;98.20
14079;DHT22;7115;50.150;8.568;2022-09-09T15:43:49;21.50;98.10
14079;DHT22;7115;50.150;8.568;2022-09-09T15:46:26;21.40;98.10
14079;DHT22;7115;50.150;8.568;2022-09-09T15:49:03;21.20;98.20
14079;DHT22;7115;50.150;8.568;2022-09-09T15:51:31;21.20;98.20
14079;DHT22;7115;50.150;8.568;2022-09-09T15:54:19;21.10;98.30
14079;DHT22;7115;50.150;8.568;2022-09-09T15:56:51;20.90;98.50
14079;DHT22;7115;50.150;8.568;2022-09-09T15:59:18;20.80;98.60
14079;DHT22;7115;50.150;8.568;2022-09-09T16:01:45;20.70;98.70
14079;DHT22;7115;50.150;8.568;2022-09-09T16:04:11;20.70;98.90
14079;DHT22;7115;50.150;8.568;2022-09-09T16:06:38;20.60;99.00
14079;DHT22;7115;50.150;8.568;2022-09-09T16:09:06;20.60;99.00
14079;DHT22;7115;50.150;8.568;2022-09-09T16:11:36;20.50;99.10
14079;DHT22;7115;50.150;8.568;2022-09-09T16:14:04;20.40;99.20
14079;DHT22;7115;50.150;8.568;2022-09-09T16:16:32;20.30;99.30
14079;DHT22;7115;50.150;8.568;2022-09-09T16:19:10;20.30;99.50
14079;DHT22;7115;50.150;8.568;2022-09-09T16:21:41;20.20;99.60
14079;DHT22;7115;50.150;8.568;2022-09-09T16:24:11;20.20;99.80
14079;DHT22;7115;50.150;8.568;2022-09-09T16:26:44;20.10;99.90
14079;DHT22;7115;50.150;8.568;2022-09-09T16:29:15;20.10;99.90
14079;DHT22;7115;50.150;8.568;2022-09-09T16:31:42;20.00;99.90
14079;DHT22;7115;50.150;8.568;2022-09-09T16:34:09;20.00;99.90
14079;DHT22;7115;50.150;8.568;2022-09-09T16:36:38;20.00;99.90
14079;DHT22;7115;50.150;8.568;2022-09-09T16:39:10;20.00;99.90
14079;DHT22;7115;50.150;8.568;2022-09-09T16:41:38;20.00;99.90
14079;DHT22;7115;50.150;8.568;2022-09-09T16:44:10;20.00;99.90
14079;DHT22;7115;50.150;8.568;2022-09-09T16:46:41;20.00;99.90
14079;DHT22;7115;50.150;8.568;2022-09-09T16:49:13;20.00;99.90
14079;DHT22;7115;50.150;8.568;2022-09-09T16:51:46;20.00;99.90
14079;DHT22;7115;50.150;8.568;2022-09-09T16:54:14;19.90;99.90
14079;DHT22;7115;50.150;8.568;2022-09-09T16:56:44;19.90;99.90
14079;DHT22;7115;50.150;8.568;2022-09-09T16:59:13;19.90;99.90
14079;DHT22;7115;50.150;8.568;2022-09-09T17:01:42;19.90;99.90
14079;DHT22;7115;50.150;8.568;2022-09-09T17:04:32;19.80;99.90
14079;DHT22;7115;50.150;8.568;2022-09-09T17:06:59;19.80;99.90
14079;DHT22;7115;50.150;8.568;2022-09-09T17:09:27;19.80;99.90
14079;DHT22;7115;50.150;8.568;2022-09-09T17:11:57;19.70;99.90
14079;DHT22;7115;50.150;8.568;2022-09-09T17:14:24;19.70;99.90
14079;DHT22;7115;50.150;8.568;2022-09-09T17:16:51;19.70;99.90
14079;DHT22;7115;50.150;8.568;2022-09-09T17:19:18;19.70;99.90
14079;DHT22;7115;50.150;8.568;2022-09-09T17:21:44;19.60;99.90
14079;DHT22;7115;50.150;8.568;2022-09-09T17:24:33;19.60;99.90
14079;DHT22;7115;50.150;8.568;2022-09-09T17:27:00;19.60;99.90
14079;DHT22;7115;50.150;8.568;2022-09-09T17:29:28;19.60;99.90
14079;DHT22;7115;50.150;8.568;2022-09-09T17:31:55;19.60;99.90
14079;DHT22;7115;50.150;8.568;2022-09-09T17:34:21;19.50;99.90
14079;DHT22;7115;50.150;8.568;2022-09-09T17:36:49;19.50;99.90
14079;DHT22;7115;50.150;8.568;2022-09-09T17:39:16;19.50;99.90
14079;DHT22;7115;50.150;8.568;2022-09-09T17:41:42;19.50;99.90
14079;DHT22;7115;50.150;8.568;2022-09-09T17:44:09;19.50;99.90
14079;DHT22;7115;50.150;8.568;2022-09-09T17:46:41;19.40;99.90
14079;DHT22;7115;50.150;8.568;2022-09-09T17:49:13;19.40;99.90
14079;DHT22;7115;50.150;8.568;2022-09-09T17:51:41;19.40;99.90
14079;DHT22;7115;50.150;8.568;2022-09-09T17:54:27;19.40;99.90
14079;DHT22;7115;50.150;8.568;2022-09-09T17:56:54;19.30;99.90
14079;DHT22;7115;50.150;8.568;2022-09-09T17:59:20;19.20;99.90
14079;DHT22;7115;50.150;8.568;2022-09-09T18:01:48;19.20;99.90
14079;DHT22;7115;50.150;8.568;2022-09-09T18:04:17;19.10;99.90
14079;DHT22;7115;50.150;8.568;2022-09-09T18:06:46;19.20;99.90
14079;DHT22;7115;50.150;8.568;2022-09-09T18:09:20;19.10;99.90
14079;DHT22;7115;50.150;8.568;2022-09-09T18:11:49;19.10;99.90
14079;DHT22;7115;50.150;8.568;2022-09-09T18:14:18;19.10;99.90
14079;DHT22;7115;50.150;8.568;2022-09-09T18:16:46;19.00;99.90
14079;DHT22;7115;50.150;8.568;2022-09-09T18:19:15;18.90;99.90
14079;DHT22;7115;50.150;8.568;2022-09-09T18:21:42;18.90;99.90
14079;DHT22;7115;50.150;8.568;2022-09-09T18:24:11;18.80;99.90
14079;DHT22;7115;50.150;8.568;2022-09-09T18:26:39;18.80;99.90
14079;DHT22;7115;50.150;8.568;2022-09-09T18:29:09;18.70;99.90
14079;DHT22;7115;50.150;8.568;2022-09-09T18:31:37;18.70;99.90
14079;DHT22;7115;50.150;8.568;2022-09-09T18:34:06;18.60;99.90
14079;DHT22;7115;50.150;8.568;2022-09-09T18:39:11;18.60;99.90
14079;DHT22;7115;50.150;8.568;2022-09-09T18:41:40;18.50;99.90
14079;DHT22;7115;50.150;8.568;2022-09-09T18:44:13;18.40;99.90
14079;DHT22;7115;50.150;8.568;2022-09-09T18:46:43;18.40;99.90
14079;DHT22;7115;50.150;8.568;2022-09-09T18:49:11;18.40;99.90
14079;DHT22;7115;50.150;8.568;2022-09-09T18:51:39;18.40;99.90
14079;DHT22;7115;50.150;8.568;2022-09-09T18:54:15;18.40;99.90
14079;DHT22;7115;50.150;8.568;2022-09-09T18:56:43;18.30;99.90